Barfleur — FNIE — position and weather

sailwx.info

Track history (hours):
 
Tides and Currents Weather Stations Pressure Air Temp Water Temp Dewpoint Dewpoint Depression Visibility Wind Speed Wind Dir Waves Ship Positions

Barfleur

Operator: Brittany Ferries

Last reported at 2019-Jul-20 01:00 UTC. Time now 2019-Jul-20 01:26 UTC.
Position N 49°45' W 001°39'.

Length 158 m; draft 5 m.

Type: Ship. MMSI: 227289000.

Date/timePositionNaut miles runAvg speedWind from/ knotsBaromVisibWave heightAir tempDewpointWater temp
2019-Jul-20 01:00N 49°45' W 001°39'612.9
2019-Jul-20 00:30N 49°51' W 001°41'612.7
2019-Jul-20 00:00N 49°57' W 001°41'612.7
2019-Jul-19 23:30N 50°04' W 001°44'713.3
2019-Jul-19 23:00N 50°10' W 001°46'612.9
2019-Jul-19 22:30N 50°16' W 001°47'612.8
2019-Jul-19 22:00N 50°23' W 001°49'712.6
2019-Jul-19 21:29N 50°29' W 001°51'612.2
2019-Jul-19 21:00N 50°35' W 001°53'611.7
2019-Jul-19 20:30N 50°40' W 001°56'3 6.0
2019-Jul-19 20:00N 50°42' W 001°59'0 0.0
2019-Jul-19 19:30N 50°42' W 001°59'0 0.0
2019-Jul-19 19:00N 50°42' W 001°59'0 0.0
2019-Jul-19 18:30N 50°42' W 001°59'0 0.1
2019-Jul-19 18:00N 50°42' W 001°59'3 6.5
2019-Jul-19 17:30N 50°40' W 001°56'815.4
2019-Jul-19 17:00N 50°33' W 001°52'2717.0
2019-Jul-19 15:24N 50°06' W 001°44'717.2
2019-Jul-19 15:00N 49°59' W 001°41'917.3
2019-Jul-19 14:30N 49°51' W 001°39'917.5
2019-Jul-19 14:00N 49°42' W 001°36'4 7.0
2019-Jul-19 13:30N 49°39' W 001°37'0 0.0
2019-Jul-19 13:00N 49°39' W 001°37'0 0.0
2019-Jul-19 12:30N 49°39' W 001°37'0 0.1
2019-Jul-19 12:00N 49°39' W 001°37'510.2
2019-Jul-19 11:30N 49°44' W 001°36'917.1
2019-Jul-19 11:00N 49°52' W 001°39'816.6
2019-Jul-19 10:30N 50°01' W 001°41'816.5
2019-Jul-19 10:00N 50°09' W 001°44'816.5
2019-Jul-19 09:30N 50°17' W 001°47'1016.4
2019-Jul-19 08:53N 50°27' W 001°50'616.2
2019-Jul-19 08:30N 50°33' W 001°52'714.7
2019-Jul-19 08:00N 50°40' W 001°56'4 7.3
2019-Jul-19 07:30N 50°42' W 001°59'0 0.0
2019-Jul-19 06:56N 50°42' W 001°59'0 0.0
2019-Jul-19 06:30N 50°42' W 001°59'0 0.0
2019-Jul-19 06:00N 50°42' W 001°59'2 4.4
2019-Jul-19 05:30N 50°41' W 001°57'4 8.2
2019-Jul-19 05:00N 50°37' W 001°54'714.8
2019-Jul-19 04:30N 50°30' W 001°51'811.9
2019-Jul-19 03:51N 50°22' W 001°50'411.6
2019-Jul-19 03:30N 50°18' W 001°49'1012.0
2019-Jul-19 02:38N 50°09' W 001°44'412.7
2019-Jul-19 02:20N 50°05' W 001°41'412.2
2019-Jul-19 02:00N 50°01' W 001°39'612.1
2019-Jul-19 01:30N 49°56' W 001°36'612.3
2019-Jul-19 01:00N 49°50' W 001°34'5 9.8
2019-Jul-19 00:30N 49°45' W 001°32'0 0.8
2019-Jul-19 00:00N 49°45' W 001°31'1 2.9
2019-Jul-18 23:30N 49°44' W 001°30'1 1.5
2019-Jul-18 23:00N 49°44' W 001°31'1 2.1
2019-Jul-18 22:30N 49°44' W 001°33'1 2.5
2019-Jul-18 22:00N 49°44' W 001°35'2 3.0
2019-Jul-18 21:30N 49°44' W 001°37'2 3.2
2019-Jul-18 21:00N 49°44' W 001°40'3 5.8
2019-Jul-18 20:30N 49°41' W 001°40'3 5.6
2019-Jul-18 19:57N 49°39' W 001°37'0 0.0
2019-Jul-18 19:21N 49°39' W 001°37'0 0.0
2019-Jul-18 18:57N 49°39' W 001°37'0 0.0
2019-Jul-18 18:27N 49°39' W 001°37'0 0.0
2019-Jul-18 17:57N 49°39' W 001°37'0 0.0
2019-Jul-18 17:30N 49°39' W 001°37'1 1.1
2019-Jul-18 17:00N 49°39' W 001°37'713.9
2019-Jul-18 16:30N 49°46' W 001°41'816.7
2019-Jul-18 16:01N 49°54' W 001°43'816.7
2019-Jul-18 15:30N 50°02' W 001°45'816.5
2019-Jul-18 15:01N 50°10' W 001°47'816.8
2019-Jul-18 14:30N 50°19' W 001°48'1216.7
2019-Jul-18 13:48N 50°30' W 001°51'517.0
2019-Jul-18 13:30N 50°35' W 001°53'713.7
2019-Jul-18 13:00N 50°42' W 001°57'2 3.3
2019-Jul-18 12:30N 50°42' W 001°59'0 0.0
2019-Jul-18 12:00N 50°42' W 001°59'0 0.0
2019-Jul-18 11:30N 50°42' W 001°59'0 0.4
2019-Jul-18 11:00N 50°42' W 001°59'5 9.5
2019-Jul-18 10:30N 50°39' W 001°55'816.8
2019-Jul-18 10:00N 50°31' W 001°51'1616.1
2019-Jul-18 09:03N 50°16' W 001°45'315.8
2019-Jul-18 08:53N 50°13' W 001°44'716.4
2019-Jul-18 08:28N 50°06' W 001°44'816.7
2019-Jul-18 08:01N 49°59' W 001°43'816.2
2019-Jul-18 07:31N 49°51' W 001°42'816.2
2019-Jul-18 07:00N 49°42' W 001°40'4 8.3
2019-Jul-18 06:30N 49°39' W 001°37'0 0.0
2019-Jul-18 06:00N 49°39' W 001°37'0 0.0
2019-Jul-18 05:30N 49°39' W 001°37'0 0.0
2019-Jul-18 05:00N 49°39' W 001°37'4 7.1
2019-Jul-18 04:30N 49°42' W 001°40'4 8.9
2019-Jul-18 04:00N 49°46' W 001°42'1 2.2
2019-Jul-18 03:30N 49°45' W 001°41'1 2.0
2019-Jul-18 03:00N 49°45' W 001°39'1 2.0
2019-Jul-18 02:30N 49°45' W 001°38'1 1.8
2019-Jul-18 02:00N 49°45' W 001°36'1 1.8
2019-Jul-18 01:30N 49°45' W 001°35'2 3.8
2019-Jul-18 00:58N 49°46' W 001°33'711.8
2019-Jul-18 00:24N 49°53' W 001°34'511.9
2019-Jul-17 23:58N 49°58' W 001°35'712.1
2019-Jul-17 23:25N 50°04' W 001°38'1512.5
2019-Jul-17 22:15N 50°18' W 001°45'712.4
2019-Jul-17 21:41N 50°25' W 001°49'411.7
2019-Jul-17 21:20N 50°29' W 001°49'411.8
2019-Jul-17 21:00N 50°33' W 001°50'612.3
2019-Jul-17 20:31N 50°38' W 001°54'5 9.8
2019-Jul-17 20:00N 50°42' W 001°59'0 1.0
2019-Jul-17 19:29N 50°42' W 001°59'0 0.0
2019-Jul-17 19:00N 50°42' W 001°59'0 0.0
2019-Jul-17 18:30N 50°42' W 001°59'0 0.0
2019-Jul-17 18:00N 50°42' W 001°59'2 3.7
2019-Jul-17 17:30N 50°41' W 001°57'713.8
2019-Jul-17 17:00N 50°35' W 001°52'917.0
2019-Jul-17 16:30N 50°27' W 001°50'917.3
2019-Jul-17 16:00N 50°18' W 001°48'1317.2
2019-Jul-17 15:14N 50°05' W 001°46'416.9
2019-Jul-17 15:00N 50°01' W 001°45'817.2
2019-Jul-17 14:30N 49°53' W 001°42'917.3
2019-Jul-17 14:00N 49°44' W 001°40'611.8
2019-Jul-17 13:30N 49°39' W 001°37'0 0.1
2019-Jul-17 12:59N 49°39' W 001°37'0 0.0
2019-Jul-17 12:29N 49°39' W 001°37'0 0.0
2019-Jul-17 12:01N 49°39' W 001°37'3 5.5
2019-Jul-17 11:31N 49°42' W 001°36'816.4
2019-Jul-17 11:00N 49°50' W 001°37'815.9
2019-Jul-17 10:30N 49°57' W 001°40'816.9
2019-Jul-17 10:00N 50°05' W 001°44'917.4
2019-Jul-17 09:30N 50°14' W 001°46'917.2
2019-Jul-17 09:00N 50°22' W 001°48'816.9
2019-Jul-17 08:31N 50°31' W 001°50'815.5
2019-Jul-17 08:01N 50°38' W 001°54'510.1
2019-Jul-17 07:30N 50°42' W 001°59'0 0.8
2019-Jul-17 06:57N 50°42' W 001°59'0 0.0
2019-Jul-17 06:31N 50°42' W 001°59'0 0.0
2019-Jul-17 06:00N 50°42' W 001°59'2 3.4
2019-Jul-17 05:31N 50°42' W 001°57'713.3
2019-Jul-17 05:00N 50°36' W 001°53'612.8
2019-Jul-17 04:30N 50°29' W 001°51'612.1
2019-Jul-17 04:00N 50°23' W 001°51'612.0
2019-Jul-17 03:30N 50°17' W 001°50'612.0
2019-Jul-17 03:00N 50°11' W 001°50'612.9
2019-Jul-17 02:30N 50°05' W 001°49'611.5
2019-Jul-17 02:00N 49°59' W 001°48'611.2
2019-Jul-17 01:30N 49°54' W 001°47'611.2
2019-Jul-17 00:58N 49°48' W 001°46'510.1
2019-Jul-17 00:30N 49°43' W 001°46'2 3.1
2019-Jul-17 00:00N 49°43' W 001°43'1 2.6
2019-Jul-16 23:30N 49°43' W 001°41'1 1.8
2019-Jul-16 23:00N 49°43' W 001°40'1 1.1
2019-Jul-16 22:30N 49°43' W 001°39'0 0.5
2019-Jul-16 22:00N 49°43' W 001°39'0 0.6
2019-Jul-16 21:30N 49°44' W 001°39'1 1.3
2019-Jul-16 21:00N 49°44' W 001°40'3 6.0
2019-Jul-16 20:30N 49°41' W 001°40'3 5.1
2019-Jul-16 19:56N 49°39' W 001°37'0 0.0
2019-Jul-16 19:27N 49°39' W 001°37'0 0.0
2019-Jul-16 19:00N 49°39' W 001°37'0 0.0
2019-Jul-16 18:29N 49°39' W 001°37'0 0.0
2019-Jul-16 18:00N 49°39' W 001°37'0 0.3
2019-Jul-16 17:05N 49°39' W 001°37'2 7.2
2019-Jul-16 16:51N 49°40' W 001°39'514.1
2019-Jul-16 16:27N 49°45' W 001°39'1014.9
2019-Jul-16 15:49N 49°55' W 001°38'616.0
2019-Jul-16 15:28N 50°01' W 001°39'816.9
2019-Jul-16 15:00N 50°08' W 001°41'816.5
2019-Jul-16 14:30N 50°17' W 001°43'816.5
2019-Jul-16 14:00N 50°25' W 001°47'816.5
2019-Jul-16 13:30N 50°32' W 001°50'816.7
2019-Jul-16 13:00N 50°40' W 001°56'3 6.9
2019-Jul-16 12:30N 50°42' W 001°59'0 0.0
2019-Jul-16 12:00N 50°42' W 001°59'0 0.0
2019-Jul-16 11:30N 50°42' W 001°59'1 1.1
2019-Jul-16 11:00N 50°42' W 001°59'5 9.8
2019-Jul-16 10:30N 50°38' W 001°54'917.1
2019-Jul-16 09:59N 50°30' W 001°51'1017.0
2019-Jul-16 09:23N 50°19' W 001°48'2916.7
2019-Jul-16 07:37N 49°50' W 001°43'316.3
2019-Jul-16 07:25N 49°47' W 001°43'715.6
2019-Jul-16 06:58N 49°40' W 001°39'1 0.6
2019-Jul-16 04:43N 49°40' W 001°37'313.6
2019-Jul-16 04:30N 49°41' W 001°40'612.7
2019-Jul-16 04:00N 49°45' W 001°49'1 1.3
2019-Jul-16 03:30N 49°45' W 001°48'1 2.2
2019-Jul-16 02:54N 49°45' W 001°46'1 2.9
2019-Jul-16 02:30N 49°45' W 001°44'2 3.3
2019-Jul-16 01:58N 49°45' W 001°41'2 2.9
2019-Jul-16 01:12N 49°45' W 001°38'2 7.9
2019-Jul-16 01:00N 49°47' W 001°39'4 9.0
2019-Jul-16 00:30N 49°50' W 001°45'812.6
2019-Jul-15 23:51N 49°58' W 001°44'412.6
2019-Jul-15 23:30N 50°02' W 001°44'1412.7
2019-Jul-15 22:26N 50°16' W 001°46'512.8
2019-Jul-15 22:00N 50°21' W 001°48'812.7
2019-Jul-15 21:23N 50°29' W 001°50'512.6
2019-Jul-15 21:00N 50°34' W 001°52'612.5
2019-Jul-15 20:30N 50°39' W 001°55'4 8.1
2019-Jul-15 20:00N 50°42' W 001°59'0 0.0
2019-Jul-15 19:25N 50°42' W 001°59'0 0.0
2019-Jul-15 19:00N 50°42' W 001°59'0 0.0
2019-Jul-15 18:30N 50°42' W 001°59'0 0.0
2019-Jul-15 18:00N 50°42' W 001°59'2 3.3
2019-Jul-15 17:30N 50°42' W 001°57'713.6
2019-Jul-15 17:01N 50°36' W 001°52'1917.4
2019-Jul-15 15:54N 50°17' W 001°49'917.5
2019-Jul-15 15:25N 50°08' W 001°47'817.3
2019-Jul-15 14:58N 50°00' W 001°45'917.0
2019-Jul-15 14:25N 49°51' W 001°42'11 4.1
2019-Jul-15 11:40N 49°40' W 001°39'314.7
2019-Jul-15 11:27N 49°43' W 001°41'816.7
2019-Jul-15 10:57N 49°51' W 001°43'2117.4
2019-Jul-15 09:45N 50°12' W 001°49'1117.6
2019-Jul-15 09:07N 50°23' W 001°51'217.4
2019-Jul-15 09:00N 50°25' W 001°51'917.1
2019-Jul-15 08:30N 50°33' W 001°53'815.2
2019-Jul-15 08:00N 50°41' W 001°57'3 5.1
2019-Jul-15 07:30N 50°42' W 001°59'0 0.0
2019-Jul-15 07:00N 50°42' W 001°59'0 0.0
2019-Jul-15 06:30N 50°42' W 001°59'0 0.0
2019-Jul-15 06:00N 50°42' W 001°59'2 3.5
2019-Jul-15 05:30N 50°42' W 001°57'713.8
2019-Jul-15 05:00N 50°35' W 001°53'3612.8
2019-Jul-15 02:10N 49°59' W 001°51'211.1
2019-Jul-15 01:58N 49°57' W 001°51'510.9
2019-Jul-15 01:28N 49°51' W 001°51'511.3
2019-Jul-15 00:59N 49°46' W 001°50'3 2.8
2019-Jul-14 23:58N 49°45' W 001°46'2 4.7
2019-Jul-14 23:28N 49°43' W 001°46'2 3.5
2019-Jul-14 22:52N 49°43' W 001°43'2 3.3
2019-Jul-14 22:22N 49°42' W 001°41'2 2.3
2019-Jul-14 21:40N 49°42' W 001°38'1 1.5
2019-Jul-14 21:10N 49°42' W 001°37'1 1.3
2019-Jul-14 20:45N 49°43' W 001°37'310.2
2019-Jul-14 20:28N 49°41' W 001°39'2 0.5
2019-Jul-14 17:01N 49°40' W 001°37'0 8.7
2019-Jul-14 17:00N 49°40' W 001°37'915.0
2019-Jul-14 16:25N 49°48' W 001°42'613.1
2019-Jul-14 15:57N 49°54' W 001°45'714.2
2019-Jul-14 15:30N 50°00' W 001°46'715.4
2019-Jul-14 15:00N 50°08' W 001°47'1116.8
2019-Jul-14 14:20N 50°19' W 001°50'1117.2
2019-Jul-14 13:42N 50°30' W 001°52'317.5
2019-Jul-14 13:30N 50°33' W 001°53'816.2
2019-Jul-14 13:00N 50°41' W 001°57'2 4.7
2019-Jul-14 12:29N 50°42' W 001°59'0 0.0
2019-Jul-14 11:59N 50°42' W 001°59'0 0.0
2019-Jul-14 11:30N 50°42' W 001°59'0 0.2
2019-Jul-14 11:00N 50°42' W 001°60'4 8.4
2019-Jul-14 10:30N 50°39' W 001°55'815.8
2019-Jul-14 10:00N 50°32' W 001°52'1717.2
2019-Jul-14 09:01N 50°15' W 001°48'117.0
2019-Jul-14 08:58N 50°14' W 001°48'817.2
2019-Jul-14 08:30N 50°06' W 001°48'917.0
2019-Jul-14 08:00N 49°58' W 001°45'816.7
2019-Jul-14 07:30N 49°50' W 001°41'10 3.6
2019-Jul-14 04:43N 49°40' W 001°37'311.1
2019-Jul-14 04:28N 49°42' W 001°39'715.5
2019-Jul-14 04:01N 49°47' W 001°47'1 1.6
2019-Jul-14 03:21N 49°47' W 001°49'0 0.7
2019-Jul-14 02:39N 49°47' W 001°50'7 2.9
2019-Jul-14 00:21N 49°53' W 001°50'512.4
2019-Jul-13 23:57N 49°58' W 001°50'612.8
2019-Jul-13 23:27N 50°05' W 001°49'612.6
2019-Jul-13 22:57N 50°11' W 001°48'1912.0
2019-Jul-13 21:24N 50°30' W 001°50'512.2
2019-Jul-13 21:00N 50°34' W 001°52'612.8
2019-Jul-13 20:30N 50°40' W 001°56'3 6.4
2019-Jul-13 20:00N 50°42' W 001°59'0 0.0
2019-Jul-13 19:29N 50°42' W 001°59'0 0.0
2019-Jul-13 19:00N 50°42' W 001°59'0 0.0
2019-Jul-13 18:30N 50°42' W 001°59'0 0.1
2019-Jul-13 18:00N 50°42' W 001°59'5 9.7
2019-Jul-13 17:30N 50°39' W 001°55'816.0
2019-Jul-13 16:59N 50°30' W 001°52'3515.8
2019-Jul-13 14:47N 49°56' W 001°47'615.1
2019-Jul-13 14:24N 49°50' W 001°44'615.6
2019-Jul-13 14:00N 49°44' W 001°41'6 0.6
2019-Jul-13 04:42N 49°40' W 001°37'4 9.8
2019-Jul-13 04:18N 49°44' W 001°38'2 3.1
2019-Jul-13 03:35N 49°45' W 001°41'0 2.7
2019-Jul-13 03:30N 49°45' W 001°41'2 2.3
2019-Jul-13 02:38N 49°45' W 001°44'0 2.0
2019-Jul-13 02:30N 49°45' W 001°45'1 1.3
2019-Jul-13 01:38N 49°45' W 001°46'0 0.1
2019-Jul-13 00:53N 49°45' W 001°46'1310.7
2019-Jul-12 23:38N 49°58' W 001°53'1313.0
2019-Jul-12 22:38N 50°11' W 001°52'1912.9
2019-Jul-12 21:11N 50°29' W 001°51'213.2
2019-Jul-12 21:00N 50°32' W 001°52'713.7
2019-Jul-12 20:30N 50°39' W 001°55'5 9.9
2019-Jul-12 20:01N 50°42' W 001°59'0 0.1
2019-Jul-12 19:31N 50°42' W 001°59'0 0.0
2019-Jul-12 19:01N 50°42' W 001°59'0 0.0
2019-Jul-12 18:31N 50°42' W 001°59'0 0.0
2019-Jul-12 18:01N 50°42' W 001°59'3 5.3
2019-Jul-12 17:31N 50°41' W 001°56'815.4
2019-Jul-12 17:01N 50°33' W 001°52'1016.7
2019-Jul-12 16:26N 50°24' W 001°49'2716.7
2019-Jul-12 14:49N 49°57' W 001°42'617.1
2019-Jul-12 14:29N 49°52' W 001°41'1117.2
2019-Jul-12 13:51N 49°41' W 001°39'0 0.2
2019-Jul-12 11:34N 49°40' W 001°39'515.8
2019-Jul-12 11:15N 49°45' W 001°41'4517.1
2019-Jul-12 08:35N 50°30' W 001°51'217.5
2019-Jul-12 08:30N 50°32' W 001°52'917.2
2019-Jul-12 08:00N 50°40' W 001°55'4 6.9
2019-Jul-12 07:28N 50°42' W 001°59'0 0.0
2019-Jul-12 06:58N 50°42' W 001°59'0 0.0
2019-Jul-12 06:28N 50°42' W 001°59'0 0.0
2019-Jul-12 06:00N 50°42' W 001°59'2 3.4
2019-Jul-12 05:30N 50°42' W 001°57'713.0
2019-Jul-12 05:00N 50°36' W 001°52'816.4
2019-Jul-12 04:30N 50°28' W 001°50'2112.0
2019-Jul-12 02:47N 50°07' W 001°46'310.8
2019-Jul-12 02:27N 50°04' W 001°47'1212.5
2019-Jul-12 01:30N 49°52' W 001°43'613.0
2019-Jul-12 01:00N 49°46' W 001°41'1 1.6
2019-Jul-12 00:18N 49°45' W 001°43'0 0.5
2019-Jul-11 23:38N 49°45' W 001°43'0 0.8
2019-Jul-11 23:30N 49°45' W 001°43'1 1.0
2019-Jul-11 23:00N 49°44' W 001°42'1 1.4
2019-Jul-11 22:30N 49°44' W 001°41'1 1.6
2019-Jul-11 22:00N 49°44' W 001°40'2 1.9
2019-Jul-11 21:05N 49°44' W 001°37'0 2.1
2019-Jul-11 21:00N 49°44' W 001°37'5 7.8
2019-Jul-11 20:24N 49°40' W 001°37'1 0.3
2019-Jul-11 17:21N 49°39' W 001°37'1 3.2
2019-Jul-11 16:56N 49°40' W 001°36'1616.0
2019-Jul-11 15:58N 49°55' W 001°43'816.4
2019-Jul-11 15:30N 50°03' W 001°43'816.7
2019-Jul-11 15:00N 50°11' W 001°44'917.3
2019-Jul-11 14:30N 50°19' W 001°46'917.4
2019-Jul-11 14:00N 50°28' W 001°50'816.9
2019-Jul-11 13:31N 50°36' W 001°53'612.0
2019-Jul-11 13:00N 50°41' W 001°57'2 3.2
2019-Jul-11 12:28N 50°42' W 001°59'0 0.0
2019-Jul-11 12:00N 50°42' W 001°59'0 0.0
2019-Jul-11 11:30N 50°42' W 001°59'0 0.2
2019-Jul-11 11:00N 50°42' W 001°59'5 9.2
2019-Jul-11 10:30N 50°39' W 001°55'816.7
2019-Jul-11 10:00N 50°31' W 001°50'917.4
2019-Jul-11 09:30N 50°23' W 001°46'917.5
2019-Jul-11 09:00N 50°14' W 001°43'1016.9
2019-Jul-11 08:25N 50°04' W 001°42'717.3
2019-Jul-11 08:00N 49°57' W 001°40'917.6
2019-Jul-11 07:30N 49°49' W 001°37'817.0
2019-Jul-11 07:00N 49°40' W 001°36'1 1.2
2019-Jul-11 05:50N 49°39' W 001°37'0 0.0
2019-Jul-11 05:30N 49°39' W 001°37'0 0.0
2019-Jul-11 05:01N 49°39' W 001°37'4 7.2
2019-Jul-11 04:30N 49°42' W 001°39'5 7.5
2019-Jul-11 03:53N 49°43' W 001°32'1 1.9
2019-Jul-11 03:11N 49°43' W 001°34'0 2.4
2019-Jul-11 02:59N 49°43' W 001°35'2 2.6
2019-Jul-11 02:21N 49°43' W 001°38'1 2.9
2019-Jul-11 01:53N 49°43' W 001°40'2 2.7
2019-Jul-11 01:18N 49°44' W 001°42'1 2.6
2019-Jul-11 00:53N 49°45' W 001°43'511.9
2019-Jul-11 00:29N 49°50' W 001°43'612.5
2019-Jul-10 23:59N 49°56' W 001°44'712.8
2019-Jul-10 23:27N 50°02' W 001°45'612.7
2019-Jul-10 22:59N 50°08' W 001°47'712.5
2019-Jul-10 22:24N 50°16' W 001°49'512.5
2019-Jul-10 22:00N 50°20' W 001°50'612.6
2019-Jul-10 21:30N 50°27' W 001°52'612.9
2019-Jul-10 21:00N 50°33' W 001°53'713.4
2019-Jul-10 20:30N 50°40' W 001°55'4 7.7
2019-Jul-10 20:00N 50°42' W 001°59'0 0.0
2019-Jul-10 19:30N 50°42' W 001°59'0 0.0
2019-Jul-10 19:00N 50°42' W 001°59'0 0.0
2019-Jul-10 18:30N 50°42' W 001°59'0 0.0
2019-Jul-10 18:00N 50°42' W 001°59'3 6.3
2019-Jul-10 17:30N 50°40' W 001°56'815.8
2019-Jul-10 17:00N 50°33' W 001°51'1416.9
2019-Jul-10 16:12N 50°20' W 001°47'2016.9
2019-Jul-10 15:00N 49°60' W 001°43'816.8
2019-Jul-10 14:30N 49°51' W 001°42'1016.3
2019-Jul-10 13:52N 49°41' W 001°39'2 0.9
2019-Jul-10 11:43N 49°40' W 001°37'412.8
2019-Jul-10 11:23N 49°43' W 001°41'717.2
2019-Jul-10 11:00N 49°50' W 001°43'816.3
2019-Jul-10 10:31N 49°58' W 001°45'815.4
2019-Jul-10 10:01N 50°05' W 001°46'815.2
2019-Jul-10 09:29N 50°13' W 001°47'715.7
2019-Jul-10 09:01N 50°21' W 001°50'917.1
2019-Jul-10 08:30N 50°29' W 001°51'917.6
2019-Jul-10 08:01N 50°38' W 001°54'611.2
2019-Jul-10 07:30N 50°42' W 001°59'0 0.8
2019-Jul-10 07:00N 50°42' W 001°59'0 0.0
2019-Jul-10 06:30N 50°42' W 001°59'0 0.0
2019-Jul-10 06:00N 50°42' W 001°59'2 3.5
2019-Jul-10 05:30N 50°42' W 001°57'612.7
2019-Jul-10 05:00N 50°36' W 001°53'713.4
2019-Jul-10 04:31N 50°29' W 001°51'713.3
2019-Jul-10 04:00N 50°23' W 001°48'1013.0
2019-Jul-10 03:15N 50°13' W 001°44'713.0
2019-Jul-10 02:42N 50°06' W 001°42'613.0
2019-Jul-10 02:16N 50°01' W 001°41'312.5
2019-Jul-10 02:01N 49°58' W 001°40'612.0
2019-Jul-10 01:30N 49°52' W 001°36'  
Track history (hours):
 
Tides and Currents Weather Stations Pressure Air Temp Water Temp Dewpoint Dewpoint Depression Visibility Wind Speed Wind Dir Waves Ship Positions

Barfleur

Operator: Brittany Ferries

Last reported at 2019-Jul-20 01:00 UTC. Time now 2019-Jul-20 01:26 UTC.
Position N 49°45' W 001°39'.

Length 158 m; draft 5 m.

Type: Ship. MMSI: 227289000.

Date/timePositionNaut miles runAvg speedWind from/ knotsBaromVisibWave heightAir tempDewpointWater temp
2019-Jul-20 01:00N 49°45' W 001°39'612.9
2019-Jul-20 00:30N 49°51' W 001°41'612.7
2019-Jul-20 00:00N 49°57' W 001°41'612.7
2019-Jul-19 23:30N 50°04' W 001°44'713.3
2019-Jul-19 23:00N 50°10' W 001°46'612.9
2019-Jul-19 22:30N 50°16' W 001°47'612.8
2019-Jul-19 22:00N 50°23' W 001°49'712.6
2019-Jul-19 21:29N 50°29' W 001°51'612.2
2019-Jul-19 21:00N 50°35' W 001°53'611.7
2019-Jul-19 20:30N 50°40' W 001°56'3 6.0
2019-Jul-19 20:00N 50°42' W 001°59'0 0.0
2019-Jul-19 19:30N 50°42' W 001°59'0 0.0
2019-Jul-19 19:00N 50°42' W 001°59'0 0.0
2019-Jul-19 18:30N 50°42' W 001°59'0 0.1
2019-Jul-19 18:00N 50°42' W 001°59'3 6.5
2019-Jul-19 17:30N 50°40' W 001°56'815.4
2019-Jul-19 17:00N 50°33' W 001°52'2717.0
2019-Jul-19 15:24N 50°06' W 001°44'717.2
2019-Jul-19 15:00N 49°59' W 001°41'917.3
2019-Jul-19 14:30N 49°51' W 001°39'917.5
2019-Jul-19 14:00N 49°42' W 001°36'4 7.0
2019-Jul-19 13:30N 49°39' W 001°37'0 0.0
2019-Jul-19 13:00N 49°39' W 001°37'0 0.0
2019-Jul-19 12:30N 49°39' W 001°37'0 0.1
2019-Jul-19 12:00N 49°39' W 001°37'510.2
2019-Jul-19 11:30N 49°44' W 001°36'917.1
2019-Jul-19 11:00N 49°52' W 001°39'816.6
2019-Jul-19 10:30N 50°01' W 001°41'816.5
2019-Jul-19 10:00N 50°09' W 001°44'816.5
2019-Jul-19 09:30N 50°17' W 001°47'1016.4
2019-Jul-19 08:53N 50°27' W 001°50'616.2
2019-Jul-19 08:30N 50°33' W 001°52'714.7
2019-Jul-19 08:00N 50°40' W 001°56'4 7.3
2019-Jul-19 07:30N 50°42' W 001°59'0 0.0
2019-Jul-19 06:56N 50°42' W 001°59'0 0.0
2019-Jul-19 06:30N 50°42' W 001°59'0 0.0
2019-Jul-19 06:00N 50°42' W 001°59'2 4.4
2019-Jul-19 05:30N 50°41' W 001°57'4 8.2
2019-Jul-19 05:00N 50°37' W 001°54'714.8
2019-Jul-19 04:30N 50°30' W 001°51'811.9
2019-Jul-19 03:51N 50°22' W 001°50'411.6
2019-Jul-19 03:30N 50°18' W 001°49'1012.0
2019-Jul-19 02:38N 50°09' W 001°44'412.7
2019-Jul-19 02:20N 50°05' W 001°41'412.2
2019-Jul-19 02:00N 50°01' W 001°39'612.1
2019-Jul-19 01:30N 49°56' W 001°36'612.3
2019-Jul-19 01:00N 49°50' W 001°34'5 9.8
2019-Jul-19 00:30N 49°45' W 001°32'0 0.8
2019-Jul-19 00:00N 49°45' W 001°31'1 2.9
2019-Jul-18 23:30N 49°44' W 001°30'1 1.5
2019-Jul-18 23:00N 49°44' W 001°31'1 2.1
2019-Jul-18 22:30N 49°44' W 001°33'1 2.5
2019-Jul-18 22:00N 49°44' W 001°35'2 3.0
2019-Jul-18 21:30N 49°44' W 001°37'2 3.2
2019-Jul-18 21:00N 49°44' W 001°40'3 5.8
2019-Jul-18 20:30N 49°41' W 001°40'3 5.6
2019-Jul-18 19:57N 49°39' W 001°37'0 0.0
2019-Jul-18 19:21N 49°39' W 001°37'0 0.0
2019-Jul-18 18:57N 49°39' W 001°37'0 0.0
2019-Jul-18 18:27N 49°39' W 001°37'0 0.0
2019-Jul-18 17:57N 49°39' W 001°37'0 0.0
2019-Jul-18 17:30N 49°39' W 001°37'1 1.1
2019-Jul-18 17:00N 49°39' W 001°37'713.9
2019-Jul-18 16:30N 49°46' W 001°41'816.7
2019-Jul-18 16:01N 49°54' W 001°43'816.7
2019-Jul-18 15:30N 50°02' W 001°45'816.5
2019-Jul-18 15:01N 50°10' W 001°47'816.8
2019-Jul-18 14:30N 50°19' W 001°48'1216.7
2019-Jul-18 13:48N 50°30' W 001°51'517.0
2019-Jul-18 13:30N 50°35' W 001°53'713.7
2019-Jul-18 13:00N 50°42' W 001°57'2 3.3
2019-Jul-18 12:30N 50°42' W 001°59'0 0.0
2019-Jul-18 12:00N 50°42' W 001°59'0 0.0
2019-Jul-18 11:30N 50°42' W 001°59'0 0.4
2019-Jul-18 11:00N 50°42' W 001°59'5 9.5
2019-Jul-18 10:30N 50°39' W 001°55'816.8
2019-Jul-18 10:00N 50°31' W 001°51'1616.1
2019-Jul-18 09:03N 50°16' W 001°45'315.8
2019-Jul-18 08:53N 50°13' W 001°44'716.4
2019-Jul-18 08:28N 50°06' W 001°44'816.7
2019-Jul-18 08:01N 49°59' W 001°43'816.2
2019-Jul-18 07:31N 49°51' W 001°42'816.2
2019-Jul-18 07:00N 49°42' W 001°40'4 8.3
2019-Jul-18 06:30N 49°39' W 001°37'0 0.0
2019-Jul-18 06:00N 49°39' W 001°37'0 0.0
2019-Jul-18 05:30N 49°39' W 001°37'0 0.0
2019-Jul-18 05:00N 49°39' W 001°37'4 7.1
2019-Jul-18 04:30N 49°42' W 001°40'4 8.9
2019-Jul-18 04:00N 49°46' W 001°42'1 2.2
2019-Jul-18 03:30N 49°45' W 001°41'1 2.0
2019-Jul-18 03:00N 49°45' W 001°39'1 2.0
2019-Jul-18 02:30N 49°45' W 001°38'1 1.8
2019-Jul-18 02:00N 49°45' W 001°36'1 1.8
2019-Jul-18 01:30N 49°45' W 001°35'2 3.8
2019-Jul-18 00:58N 49°46' W 001°33'711.8
2019-Jul-18 00:24N 49°53' W 001°34'511.9
2019-Jul-17 23:58N 49°58' W 001°35'712.1
2019-Jul-17 23:25N 50°04' W 001°38'1512.5
2019-Jul-17 22:15N 50°18' W 001°45'712.4
2019-Jul-17 21:41N 50°25' W 001°49'411.7
2019-Jul-17 21:20N 50°29' W 001°49'411.8
2019-Jul-17 21:00N 50°33' W 001°50'612.3
2019-Jul-17 20:31N 50°38' W 001°54'5 9.8
2019-Jul-17 20:00N 50°42' W 001°59'0 1.0
2019-Jul-17 19:29N 50°42' W 001°59'0 0.0
2019-Jul-17 19:00N 50°42' W 001°59'0 0.0
2019-Jul-17 18:30N 50°42' W 001°59'0 0.0
2019-Jul-17 18:00N 50°42' W 001°59'2 3.7
2019-Jul-17 17:30N 50°41' W 001°57'713.8
2019-Jul-17 17:00N 50°35' W 001°52'917.0
2019-Jul-17 16:30N 50°27' W 001°50'917.3
2019-Jul-17 16:00N 50°18' W 001°48'1317.2
2019-Jul-17 15:14N 50°05' W 001°46'416.9
2019-Jul-17 15:00N 50°01' W 001°45'817.2
2019-Jul-17 14:30N 49°53' W 001°42'917.3
2019-Jul-17 14:00N 49°44' W 001°40'611.8
2019-Jul-17 13:30N 49°39' W 001°37'0 0.1
2019-Jul-17 12:59N 49°39' W 001°37'0 0.0
2019-Jul-17 12:29N 49°39' W 001°37'0 0.0
2019-Jul-17 12:01N 49°39' W 001°37'3 5.5
2019-Jul-17 11:31N 49°42' W 001°36'816.4
2019-Jul-17 11:00N 49°50' W 001°37'815.9
2019-Jul-17 10:30N 49°57' W 001°40'816.9
2019-Jul-17 10:00N 50°05' W 001°44'917.4
2019-Jul-17 09:30N 50°14' W 001°46'917.2
2019-Jul-17 09:00N 50°22' W 001°48'816.9
2019-Jul-17 08:31N 50°31' W 001°50'815.5
2019-Jul-17 08:01N 50°38' W 001°54'510.1
2019-Jul-17 07:30N 50°42' W 001°59'0 0.8
2019-Jul-17 06:57N 50°42' W 001°59'0 0.0
2019-Jul-17 06:31N 50°42' W 001°59'0 0.0
2019-Jul-17 06:00N 50°42' W 001°59'2 3.4
2019-Jul-17 05:31N 50°42' W 001°57'713.3
2019-Jul-17 05:00N 50°36' W 001°53'612.8
2019-Jul-17 04:30N 50°29' W 001°51'612.1
2019-Jul-17 04:00N 50°23' W 001°51'612.0
2019-Jul-17 03:30N 50°17' W 001°50'612.0
2019-Jul-17 03:00N 50°11' W 001°50'612.9
2019-Jul-17 02:30N 50°05' W 001°49'611.5
2019-Jul-17 02:00N 49°59' W 001°48'611.2
2019-Jul-17 01:30N 49°54' W 001°47'611.2
2019-Jul-17 00:58N 49°48' W 001°46'510.1
2019-Jul-17 00:30N 49°43' W 001°46'2 3.1
2019-Jul-17 00:00N 49°43' W 001°43'1 2.6
2019-Jul-16 23:30N 49°43' W 001°41'1 1.8
2019-Jul-16 23:00N 49°43' W 001°40'1 1.1
2019-Jul-16 22:30N 49°43' W 001°39'0 0.5
2019-Jul-16 22:00N 49°43' W 001°39'0 0.6
2019-Jul-16 21:30N 49°44' W 001°39'1 1.3
2019-Jul-16 21:00N 49°44' W 001°40'3 6.0
2019-Jul-16 20:30N 49°41' W 001°40'3 5.1
2019-Jul-16 19:56N 49°39' W 001°37'0 0.0
2019-Jul-16 19:27N 49°39' W 001°37'0 0.0
2019-Jul-16 19:00N 49°39' W 001°37'0 0.0
2019-Jul-16 18:29N 49°39' W 001°37'0 0.0
2019-Jul-16 18:00N 49°39' W 001°37'0 0.3
2019-Jul-16 17:05N 49°39' W 001°37'2 7.2
2019-Jul-16 16:51N 49°40' W 001°39'514.1
2019-Jul-16 16:27N 49°45' W 001°39'1014.9
2019-Jul-16 15:49N 49°55' W 001°38'616.0
2019-Jul-16 15:28N 50°01' W 001°39'816.9
2019-Jul-16 15:00N 50°08' W 001°41'816.5
2019-Jul-16 14:30N 50°17' W 001°43'816.5
2019-Jul-16 14:00N 50°25' W 001°47'816.5
2019-Jul-16 13:30N 50°32' W 001°50'816.7
2019-Jul-16 13:00N 50°40' W 001°56'3 6.9
2019-Jul-16 12:30N 50°42' W 001°59'0 0.0
2019-Jul-16 12:00N 50°42' W 001°59'0 0.0
2019-Jul-16 11:30N 50°42' W 001°59'1 1.1
2019-Jul-16 11:00N 50°42' W 001°59'5 9.8
2019-Jul-16 10:30N 50°38' W 001°54'917.1
2019-Jul-16 09:59N 50°30' W 001°51'1017.0
2019-Jul-16 09:23N 50°19' W 001°48'2916.7
2019-Jul-16 07:37N 49°50' W 001°43'316.3
2019-Jul-16 07:25N 49°47' W 001°43'715.6
2019-Jul-16 06:58N 49°40' W 001°39'1 0.6
2019-Jul-16 04:43N 49°40' W 001°37'313.6
2019-Jul-16 04:30N 49°41' W 001°40'612.7
2019-Jul-16 04:00N 49°45' W 001°49'1 1.3
2019-Jul-16 03:30N 49°45' W 001°48'1 2.2
2019-Jul-16 02:54N 49°45' W 001°46'1 2.9
2019-Jul-16 02:30N 49°45' W 001°44'2 3.3
2019-Jul-16 01:58N 49°45' W 001°41'2 2.9
2019-Jul-16 01:12N 49°45' W 001°38'2 7.9
2019-Jul-16 01:00N 49°47' W 001°39'4 9.0
2019-Jul-16 00:30N 49°50' W 001°45'812.6
2019-Jul-15 23:51N 49°58' W 001°44'412.6
2019-Jul-15 23:30N 50°02' W 001°44'1412.7
2019-Jul-15 22:26N 50°16' W 001°46'512.8
2019-Jul-15 22:00N 50°21' W 001°48'812.7
2019-Jul-15 21:23N 50°29' W 001°50'512.6
2019-Jul-15 21:00N 50°34' W 001°52'612.5
2019-Jul-15 20:30N 50°39' W 001°55'4 8.1
2019-Jul-15 20:00N 50°42' W 001°59'0 0.0
2019-Jul-15 19:25N 50°42' W 001°59'0 0.0
2019-Jul-15 19:00N 50°42' W 001°59'0 0.0
2019-Jul-15 18:30N 50°42' W 001°59'0 0.0
2019-Jul-15 18:00N 50°42' W 001°59'2 3.3
2019-Jul-15 17:30N 50°42' W 001°57'713.6
2019-Jul-15 17:01N 50°36' W 001°52'1917.4
2019-Jul-15 15:54N 50°17' W 001°49'917.5
2019-Jul-15 15:25N 50°08' W 001°47'817.3
2019-Jul-15 14:58N 50°00' W 001°45'917.0
2019-Jul-15 14:25N 49°51' W 001°42'11 4.1
2019-Jul-15 11:40N 49°40' W 001°39'314.7
2019-Jul-15 11:27N 49°43' W 001°41'816.7
2019-Jul-15 10:57N 49°51' W 001°43'2117.4
2019-Jul-15 09:45N 50°12' W 001°49'1117.6
2019-Jul-15 09:07N 50°23' W 001°51'217.4
2019-Jul-15 09:00N 50°25' W 001°51'917.1
2019-Jul-15 08:30N 50°33' W 001°53'815.2
2019-Jul-15 08:00N 50°41' W 001°57'3 5.1
2019-Jul-15 07:30N 50°42' W 001°59'0 0.0
2019-Jul-15 07:00N 50°42' W 001°59'0 0.0
2019-Jul-15 06:30N 50°42' W 001°59'0 0.0
2019-Jul-15 06:00N 50°42' W 001°59'2 3.5
2019-Jul-15 05:30N 50°42' W 001°57'713.8
2019-Jul-15 05:00N 50°35' W 001°53'3612.8
2019-Jul-15 02:10N 49°59' W 001°51'211.1
2019-Jul-15 01:58N 49°57' W 001°51'510.9
2019-Jul-15 01:28N 49°51' W 001°51'511.3
2019-Jul-15 00:59N 49°46' W 001°50'3 2.8
2019-Jul-14 23:58N 49°45' W 001°46'2 4.7
2019-Jul-14 23:28N 49°43' W 001°46'2 3.5
2019-Jul-14 22:52N 49°43' W 001°43'2 3.3
2019-Jul-14 22:22N 49°42' W 001°41'2 2.3
2019-Jul-14 21:40N 49°42' W 001°38'1 1.5
2019-Jul-14 21:10N 49°42' W 001°37'1 1.3
2019-Jul-14 20:45N 49°43' W 001°37'310.2
2019-Jul-14 20:28N 49°41' W 001°39'2 0.5
2019-Jul-14 17:01N 49°40' W 001°37'0 8.7
2019-Jul-14 17:00N 49°40' W 001°37'915.0
2019-Jul-14 16:25N 49°48' W 001°42'613.1
2019-Jul-14 15:57N 49°54' W 001°45'714.2
2019-Jul-14 15:30N 50°00' W 001°46'715.4
2019-Jul-14 15:00N 50°08' W 001°47'1116.8
2019-Jul-14 14:20N 50°19' W 001°50'1117.2
2019-Jul-14 13:42N 50°30' W 001°52'317.5
2019-Jul-14 13:30N 50°33' W 001°53'816.2
2019-Jul-14 13:00N 50°41' W 001°57'2 4.7
2019-Jul-14 12:29N 50°42' W 001°59'0 0.0
2019-Jul-14 11:59N 50°42' W 001°59'0 0.0
2019-Jul-14 11:30N 50°42' W 001°59'0 0.2
2019-Jul-14 11:00N 50°42' W 001°60'4 8.4
2019-Jul-14 10:30N 50°39' W 001°55'815.8
2019-Jul-14 10:00N 50°32' W 001°52'1717.2
2019-Jul-14 09:01N 50°15' W 001°48'117.0
2019-Jul-14 08:58N 50°14' W 001°48'817.2
2019-Jul-14 08:30N 50°06' W 001°48'917.0
2019-Jul-14 08:00N 49°58' W 001°45'816.7
2019-Jul-14 07:30N 49°50' W 001°41'10 3.6
2019-Jul-14 04:43N 49°40' W 001°37'311.1
2019-Jul-14 04:28N 49°42' W 001°39'715.5
2019-Jul-14 04:01N 49°47' W 001°47'1 1.6
2019-Jul-14 03:21N 49°47' W 001°49'0 0.7
2019-Jul-14 02:39N 49°47' W 001°50'7 2.9
2019-Jul-14 00:21N 49°53' W 001°50'512.4
2019-Jul-13 23:57N 49°58' W 001°50'612.8
2019-Jul-13 23:27N 50°05' W 001°49'612.6
2019-Jul-13 22:57N 50°11' W 001°48'1912.0
2019-Jul-13 21:24N 50°30' W 001°50'512.2
2019-Jul-13 21:00N 50°34' W 001°52'612.8
2019-Jul-13 20:30N 50°40' W 001°56'3 6.4
2019-Jul-13 20:00N 50°42' W 001°59'0 0.0
2019-Jul-13 19:29N 50°42' W 001°59'0 0.0
2019-Jul-13 19:00N 50°42' W 001°59'0 0.0
2019-Jul-13 18:30N 50°42' W 001°59'0 0.1
2019-Jul-13 18:00N 50°42' W 001°59'5 9.7
2019-Jul-13 17:30N 50°39' W 001°55'816.0
2019-Jul-13 16:59N 50°30' W 001°52'3515.8
2019-Jul-13 14:47N 49°56' W 001°47'615.1
2019-Jul-13 14:24N 49°50' W 001°44'615.6
2019-Jul-13 14:00N 49°44' W 001°41'6 0.6
2019-Jul-13 04:42N 49°40' W 001°37'4 9.8
2019-Jul-13 04:18N 49°44' W 001°38'2 3.1
2019-Jul-13 03:35N 49°45' W 001°41'0 2.7
2019-Jul-13 03:30N 49°45' W 001°41'2 2.3
2019-Jul-13 02:38N 49°45' W 001°44'0 2.0
2019-Jul-13 02:30N 49°45' W 001°45'1 1.3
2019-Jul-13 01:38N 49°45' W 001°46'0 0.1
2019-Jul-13 00:53N 49°45' W 001°46'1310.7
2019-Jul-12 23:38N 49°58' W 001°53'1313.0
2019-Jul-12 22:38N 50°11' W 001°52'1912.9
2019-Jul-12 21:11N 50°29' W 001°51'213.2
2019-Jul-12 21:00N 50°32' W 001°52'713.7
2019-Jul-12 20:30N 50°39' W 001°55'5 9.9
2019-Jul-12 20:01N 50°42' W 001°59'0 0.1
2019-Jul-12 19:31N 50°42' W 001°59'0 0.0
2019-Jul-12 19:01N 50°42' W 001°59'0 0.0
2019-Jul-12 18:31N 50°42' W 001°59'0 0.0
2019-Jul-12 18:01N 50°42' W 001°59'3 5.3
2019-Jul-12 17:31N 50°41' W 001°56'815.4
2019-Jul-12 17:01N 50°33' W 001°52'1016.7
2019-Jul-12 16:26N 50°24' W 001°49'2716.7
2019-Jul-12 14:49N 49°57' W 001°42'617.1
2019-Jul-12 14:29N 49°52' W 001°41'1117.2
2019-Jul-12 13:51N 49°41' W 001°39'0 0.2
2019-Jul-12 11:34N 49°40' W 001°39'515.8
2019-Jul-12 11:15N 49°45' W 001°41'4517.1
2019-Jul-12 08:35N 50°30' W 001°51'217.5
2019-Jul-12 08:30N 50°32' W 001°52'917.2
2019-Jul-12 08:00N 50°40' W 001°55'4 6.9
2019-Jul-12 07:28N 50°42' W 001°59'0 0.0
2019-Jul-12 06:58N 50°42' W 001°59'0 0.0
2019-Jul-12 06:28N 50°42' W 001°59'0 0.0
2019-Jul-12 06:00N 50°42' W 001°59'2 3.4
2019-Jul-12 05:30N 50°42' W 001°57'713.0
2019-Jul-12 05:00N 50°36' W 001°52'816.4
2019-Jul-12 04:30N 50°28' W 001°50'2112.0
2019-Jul-12 02:47N 50°07' W 001°46'310.8
2019-Jul-12 02:27N 50°04' W 001°47'1212.5
2019-Jul-12 01:30N 49°52' W 001°43'613.0
2019-Jul-12 01:00N 49°46' W 001°41'1 1.6
2019-Jul-12 00:18N 49°45' W 001°43'0 0.5
2019-Jul-11 23:38N 49°45' W 001°43'0 0.8
2019-Jul-11 23:30N 49°45' W 001°43'1 1.0
2019-Jul-11 23:00N 49°44' W 001°42'1 1.4
2019-Jul-11 22:30N 49°44' W 001°41'1 1.6
2019-Jul-11 22:00N 49°44' W 001°40'2 1.9
2019-Jul-11 21:05N 49°44' W 001°37'0 2.1
2019-Jul-11 21:00N 49°44' W 001°37'5 7.8
2019-Jul-11 20:24N 49°40' W 001°37'1 0.3
2019-Jul-11 17:21N 49°39' W 001°37'1 3.2
2019-Jul-11 16:56N 49°40' W 001°36'1616.0
2019-Jul-11 15:58N 49°55' W 001°43'816.4
2019-Jul-11 15:30N 50°03' W 001°43'816.7
2019-Jul-11 15:00N 50°11' W 001°44'917.3
2019-Jul-11 14:30N 50°19' W 001°46'917.4
2019-Jul-11 14:00N 50°28' W 001°50'816.9
2019-Jul-11 13:31N 50°36' W 001°53'612.0
2019-Jul-11 13:00N 50°41' W 001°57'2 3.2
2019-Jul-11 12:28N 50°42' W 001°59'0 0.0
2019-Jul-11 12:00N 50°42' W 001°59'0 0.0
2019-Jul-11 11:30N 50°42' W 001°59'0 0.2
2019-Jul-11 11:00N 50°42' W 001°59'5 9.2
2019-Jul-11 10:30N 50°39' W 001°55'816.7
2019-Jul-11 10:00N 50°31' W 001°50'917.4
2019-Jul-11 09:30N 50°23' W 001°46'917.5
2019-Jul-11 09:00N 50°14' W 001°43'1016.9
2019-Jul-11 08:25N 50°04' W 001°42'717.3
2019-Jul-11 08:00N 49°57' W 001°40'917.6
2019-Jul-11 07:30N 49°49' W 001°37'817.0
2019-Jul-11 07:00N 49°40' W 001°36'1 1.2
2019-Jul-11 05:50N 49°39' W 001°37'0 0.0
2019-Jul-11 05:30N 49°39' W 001°37'0 0.0
2019-Jul-11 05:01N 49°39' W 001°37'4 7.2
2019-Jul-11 04:30N 49°42' W 001°39'5 7.5
2019-Jul-11 03:53N 49°43' W 001°32'1 1.9
2019-Jul-11 03:11N 49°43' W 001°34'0 2.4
2019-Jul-11 02:59N 49°43' W 001°35'2 2.6
2019-Jul-11 02:21N 49°43' W 001°38'1 2.9
2019-Jul-11 01:53N 49°43' W 001°40'2 2.7
2019-Jul-11 01:18N 49°44' W 001°42'1 2.6
2019-Jul-11 00:53N 49°45' W 001°43'511.9
2019-Jul-11 00:29N 49°50' W 001°43'612.5
2019-Jul-10 23:59N 49°56' W 001°44'712.8
2019-Jul-10 23:27N 50°02' W 001°45'612.7
2019-Jul-10 22:59N 50°08' W 001°47'712.5
2019-Jul-10 22:24N 50°16' W 001°49'512.5
2019-Jul-10 22:00N 50°20' W 001°50'612.6
2019-Jul-10 21:30N 50°27' W 001°52'612.9
2019-Jul-10 21:00N 50°33' W 001°53'713.4
2019-Jul-10 20:30N 50°40' W 001°55'4 7.7
2019-Jul-10 20:00N 50°42' W 001°59'0 0.0
2019-Jul-10 19:30N 50°42' W 001°59'0 0.0
2019-Jul-10 19:00N 50°42' W 001°59'0 0.0
2019-Jul-10 18:30N 50°42' W 001°59'0 0.0
2019-Jul-10 18:00N 50°42' W 001°59'3 6.3
2019-Jul-10 17:30N 50°40' W 001°56'815.8
2019-Jul-10 17:00N 50°33' W 001°51'1416.9
2019-Jul-10 16:12N 50°20' W 001°47'2016.9
2019-Jul-10 15:00N 49°60' W 001°43'816.8
2019-Jul-10 14:30N 49°51' W 001°42'1016.3
2019-Jul-10 13:52N 49°41' W 001°39'2 0.9
2019-Jul-10 11:43N 49°40' W 001°37'412.8
2019-Jul-10 11:23N 49°43' W 001°41'717.2
2019-Jul-10 11:00N 49°50' W 001°43'816.3
2019-Jul-10 10:31N 49°58' W 001°45'815.4
2019-Jul-10 10:01N 50°05' W 001°46'815.2
2019-Jul-10 09:29N 50°13' W 001°47'715.7
2019-Jul-10 09:01N 50°21' W 001°50'917.1
2019-Jul-10 08:30N 50°29' W 001°51'917.6
2019-Jul-10 08:01N 50°38' W 001°54'611.2
2019-Jul-10 07:30N 50°42' W 001°59'0 0.8
2019-Jul-10 07:00N 50°42' W 001°59'0 0.0
2019-Jul-10 06:30N 50°42' W 001°59'0 0.0
2019-Jul-10 06:00N 50°42' W 001°59'2 3.5
2019-Jul-10 05:30N 50°42' W 001°57'612.7
2019-Jul-10 05:00N 50°36' W 001°53'713.4
2019-Jul-10 04:31N 50°29' W 001°51'713.3
2019-Jul-10 04:00N 50°23' W 001°48'1013.0
2019-Jul-10 03:15N 50°13' W 001°44'713.0
2019-Jul-10 02:42N 50°06' W 001°42'613.0
2019-Jul-10 02:16N 50°01' W 001°41'312.5
2019-Jul-10 02:01N 49°58' W 001°40'612.0
2019-Jul-10 01:30N 49°52' W 001°36'  

Dump ship's entire track history